Time;durP1;ratioP1;P1;durP2;ratioP2;P2;SDS_P1;SDS_P2;PMS_P1;PMS_P2;Temp;Humidity;BMP_temperature;BMP_pressure;BME280_temperature;BME280_humidity;BME280_pressure;Samples;Min_cycle;Max_cycle;Signal;HPM_P1;HPM_P2
2023/12/25 00:01:15;;;;;;;;;5.33;5.33;;;;;;;;5077281;28;46297;-69
2023/12/25 00:03:40;;;;;;;;;11.67;5.33;;;;;;;;5069375;28;45437;-73
2023/12/25 00:06:06;;;;;;;;;12.00;7.00;;;;;;;;5077743;28;45271;-72
2023/12/25 00:08:31;;;;;;;;;10.67;5.00;;;;;;;;5076426;28;45350;-72
2023/12/25 00:10:56;;;;;;;;;11.00;7.00;;;;;;;;5075401;28;45650;-71
2023/12/25 00:13:21;;;;;;;;;10.33;7.67;;;;;;;;5077742;28;45362;-69
2023/12/25 00:15:46;;;;;;;;;5.67;5.33;;;;;;;;5077323;28;46622;-69
2023/12/25 00:18:12;;;;;;;;;7.67;5.00;;;;;;;;5077738;28;45294;-69
2023/12/25 00:20:38;;;;;;;;;7.33;6.00;;;;;;;;5077086;28;45346;-69
2023/12/25 00:23:04;;;;;;;;;6.00;3.00;;;;;;;;5073413;28;45438;-69
2023/12/25 00:25:29;;;;;;;;;6.00;5.00;;;;;;;;5077211;28;45458;-69
2023/12/25 00:27:54;;;;;;;;;13.33;7.00;;;;;;;;5077411;28;45410;-73
2023/12/25 00:30:19;;;;;;;;;15.33;6.33;;;;;;;;5071911;28;46345;-69
2023/12/25 00:32:45;;;;;;;;;3.33;3.33;;;;;;;;5077108;28;45464;-69
2023/12/25 00:35:10;;;;;;;;;6.67;4.00;;;;;;;;5076928;28;45584;-68
2023/12/25 00:37:35;;;;;;;;;8.00;3.33;;;;;;;;5077042;28;45281;-69
2023/12/25 00:40:01;;;;;;;;;4.00;3.00;;;;;;;;5076904;28;45761;-69
2023/12/25 00:42:26;;;;;;;;;5.00;2.67;;;;;;;;5076888;28;45350;-70
2023/12/25 00:44:51;;;;;;;;;4.00;3.00;;;;;;;;5078610;28;45258;-69
2023/12/25 00:47:16;;;;;;;;;4.00;2.00;;;;;;;;5083615;28;45276;-69
2023/12/25 00:49:41;;;;;;;;;5.67;3.00;;;;;;;;5083883;28;45623;-69
2023/12/25 00:52:07;;;;;;;;;7.33;3.67;;;;;;;;5083475;28;45326;-71
2023/12/25 00:54:32;;;;;;;;;5.33;1.67;;;;;;;;5083056;28;45388;-72
2023/12/25 00:56:58;;;;;;;;;5.00;3.00;;;;;;;;5077568;28;45388;-72
2023/12/25 00:59:23;;;;;;;;;4.67;3.33;;;;;;;;5079235;28;45752;-73
2023/12/25 01:01:48;;;;;;;;;3.33;3.00;;;;;;;;5083396;28;45381;-69
2023/12/25 01:04:14;;;;;;;;;6.00;3.00;;;;;;;;5076758;28;45454;-70
2023/12/25 01:06:39;;;;;;;;;7.33;2.67;;;;;;;;5083600;28;45372;-72
2023/12/25 01:09:04;;;;;;;;;6.33;4.00;;;;;;;;5080469;28;45761;-69
2023/12/25 01:11:29;;;;;;;;;5.33;3.00;;;;;;;;5083095;28;45445;-69
2023/12/25 01:13:55;;;;;;;;;9.67;4.00;;;;;;;;5083680;28;45305;-72
2023/12/25 01:16:20;;;;;;;;;7.67;3.33;;;;;;;;5083435;28;45309;-68
2023/12/25 01:18:45;;;;;;;;;9.67;5.00;;;;;;;;5083618;28;45492;-70
2023/12/25 01:21:10;;;;;;;;;6.33;3.00;;;;;;;;5083110;28;45307;-71
2023/12/25 01:23:36;;;;;;;;;7.00;3.67;;;;;;;;5083328;28;45353;-69
2023/12/25 01:26:01;;;;;;;;;7.67;3.00;;;;;;;;5083334;28;45356;-69
2023/12/25 01:28:26;;;;;;;;;4.00;3.33;;;;;;;;5082973;28;45504;-71
2023/12/25 01:30:51;;;;;;;;;5.67;3.33;;;;;;;;5083237;28;45429;-70
2023/12/25 01:33:16;;;;;;;;;5.67;2.00;;;;;;;;5064906;28;45674;-72
2023/12/25 01:35:42;;;;;;;;;5.33;2.33;;;;;;;;5083264;28;45401;-69
2023/12/25 01:38:07;;;;;;;;;5.00;3.00;;;;;;;;5082705;28;45842;-69
2023/12/25 01:40:32;;;;;;;;;8.00;2.33;;;;;;;;5082892;28;45337;-72
2023/12/25 01:42:57;;;;;;;;;7.00;3.00;;;;;;;;5083258;28;45571;-70
2023/12/25 01:45:22;;;;;;;;;4.00;2.33;;;;;;;;5082999;28;45394;-70
2023/12/25 01:47:48;;;;;;;;;4.33;3.00;;;;;;;;5083003;28;45433;-69
2023/12/25 01:50:14;;;;;;;;;7.00;4.00;;;;;;;;5082867;28;45483;-71
2023/12/25 01:52:40;;;;;;;;;6.00;2.00;;;;;;;;5082921;28;45461;-69
2023/12/25 01:55:05;;;;;;;;;5.00;2.00;;;;;;;;5082425;28;45623;-69
2023/12/25 01:57:32;;;;;;;;;4.67;2.33;;;;;;;;5079111;28;45729;-74
2023/12/25 01:59:57;;;;;;;;;6.67;4.00;;;;;;;;5078239;28;45343;-69
2023/12/25 02:02:23;;;;;;;;;3.00;2.00;;;;;;;;5079213;28;45327;-69
2023/12/25 02:04:48;;;;;;;;;8.67;3.00;;;;;;;;5072520;28;45141;-69
2023/12/25 02:07:14;;;;;;;;;9.00;3.33;;;;;;;;5079023;28;45611;-69
2023/12/25 02:09:40;;;;;;;;;5.00;2.00;;;;;;;;5076184;28;45361;-70
2023/12/25 02:12:05;;;;;;;;;4.67;2.00;;;;;;;;5079568;28;45476;-69
2023/12/25 02:14:30;;;;;;;;;2.00;2.00;;;;;;;;5079686;28;45390;-69
2023/12/25 02:16:56;;;;;;;;;4.33;2.00;;;;;;;;5079266;28;45605;-69
2023/12/25 02:19:29;;;;;;;;;4.00;2.00;;;;;;;;5077218;28;45449;-68
2023/12/25 02:21:55;;;;;;;;;1.00;1.00;;;;;;;;5073730;28;45296;-68
2023/12/25 02:24:24;;;;;;;;;2.67;2.67;;;;;;;;5073078;28;45497;-69
2023/12/25 02:26:49;;;;;;;;;4.67;3.00;;;;;;;;5068344;28;45470;-72
2023/12/25 02:29:15;;;;;;;;;3.00;3.00;;;;;;;;5069465;28;45453;-69
2023/12/25 02:31:40;;;;;;;;;5.00;2.00;;;;;;;;5073215;28;45446;-70
2023/12/25 02:34:05;;;;;;;;;4.33;1.33;;;;;;;;5071050;28;45314;-71
2023/12/25 02:36:30;;;;;;;;;5.67;2.00;;;;;;;;5072164;28;47304;-70
2023/12/25 02:38:56;;;;;;;;;6.00;1.67;;;;;;;;5068355;28;45236;-69
2023/12/25 02:41:21;;;;;;;;;4.33;3.00;;;;;;;;5065616;28;45228;-71
2023/12/25 02:43:46;;;;;;;;;3.33;2.00;;;;;;;;5066803;28;45206;-69
2023/12/25 02:46:11;;;;;;;;;3.00;1.00;;;;;;;;5062288;28;46048;-69
2023/12/25 02:48:36;;;;;;;;;3.33;1.00;;;;;;;;5063679;28;45222;-71
2023/12/25 02:51:02;;;;;;;;;6.33;2.00;;;;;;;;5060183;28;45215;-71
2023/12/25 02:53:27;;;;;;;;;1.33;1.00;;;;;;;;5061374;28;45595;-72
2023/12/25 02:55:52;;;;;;;;;4.00;2.67;;;;;;;;5077739;28;47243;-69
2023/12/25 02:58:17;;;;;;;;;2.00;2.00;;;;;;;;5076609;28;45451;-71
2023/12/25 03:00:42;;;;;;;;;4.00;1.00;;;;;;;;5078609;28;45150;-70
2023/12/25 03:03:08;;;;;;;;;3.00;2.00;;;;;;;;5073162;28;45497;-69
2023/12/25 03:05:33;;;;;;;;;3.67;2.00;;;;;;;;5072947;28;47210;-69
2023/12/25 03:07:58;;;;;;;;;3.00;0.00;;;;;;;;5069909;28;45218;-69
2023/12/25 03:10:23;;;;;;;;;7.33;2.00;;;;;;;;5067633;28;45533;-69
2023/12/25 03:12:49;;;;;;;;;4.00;2.00;;;;;;;;5068065;28;45426;-69
2023/12/25 03:15:14;;;;;;;;;3.00;2.00;;;;;;;;5062893;28;46162;-73
2023/12/25 03:17:39;;;;;;;;;1.33;1.33;;;;;;;;5057269;28;45427;-69
2023/12/25 03:20:05;;;;;;;;;5.00;3.00;;;;;;;;5061049;28;45299;-71
2023/12/25 03:22:30;;;;;;;;;3.00;3.00;;;;;;;;5061033;28;45299;-70
2023/12/25 03:24:56;;;;;;;;;1.67;1.67;;;;;;;;5060624;28;47530;-71
2023/12/25 03:27:21;;;;;;;;;2.00;1.00;;;;;;;;5072091;28;45461;-69
2023/12/25 03:29:46;;;;;;;;;3.33;1.00;;;;;;;;5075628;28;45484;-69
2023/12/25 03:32:13;;;;;;;;;6.00;1.00;;;;;;;;5072351;28;45579;-69
2023/12/25 03:34:48;;;;;;;;;2.00;1.00;;;;;;;;5074640;28;46611;-69
2023/12/25 03:37:13;;;;;;;;;1.00;1.00;;;;;;;;5071087;28;45442;-70
2023/12/25 03:39:38;;;;;;;;;1.00;1.00;;;;;;;;5070004;28;45411;-69
2023/12/25 03:42:04;;;;;;;;;2.33;1.00;;;;;;;;5069136;28;45629;-72
2023/12/25 03:44:29;;;;;;;;;1.00;1.00;;;;;;;;5065506;28;45335;-72
2023/12/25 03:46:54;;;;;;;;;3.33;2.00;;;;;;;;5066974;28;45331;-69
2023/12/25 03:49:19;;;;;;;;;2.00;2.00;;;;;;;;5062270;28;45337;-71
2023/12/25 03:51:44;;;;;;;;;1.00;1.00;;;;;;;;5063724;28;45200;-70
2023/12/25 03:54:10;;;;;;;;;1.00;1.00;;;;;;;;5050608;28;47339;-72
2023/12/25 03:56:35;;;;;;;;;4.00;1.00;;;;;;;;5061743;28;45368;-72
2023/12/25 03:59:00;;;;;;;;;3.67;1.00;;;;;;;;5066677;28;45327;-69
2023/12/25 04:01:25;;;;;;;;;3.00;1.33;;;;;;;;5075991;28;45652;-69
2023/12/25 04:03:50;;;;;;;;;1.00;1.00;;;;;;;;5075069;28;46428;-72
2023/12/25 04:06:25;;;;;;;;;1.00;1.00;;;;;;;;5071642;28;45141;-69
2023/12/25 04:08:50;;;;;;;;;2.67;1.00;;;;;;;;5068106;28;45440;-69
2023/12/25 04:11:22;;;;;;;;;2.00;1.00;;;;;;;;5073680;28;45301;-71
2023/12/25 04:13:48;;;;;;;;;2.00;1.00;;;;;;;;5069324;28;45328;-69
2023/12/25 04:16:20;;;;;;;;;2.00;1.00;;;;;;;;5064690;28;45375;-72
2023/12/25 04:18:45;;;;;;;;;3.33;1.00;;;;;;;;5066116;28;45314;-71
2023/12/25 04:21:20;;;;;;;;;3.00;1.00;;;;;;;;5060886;28;45606;-69
2023/12/25 04:23:45;;;;;;;;;0.33;0.33;;;;;;;;5073827;28;46556;-69
2023/12/25 04:26:10;;;;;;;;;1.00;1.00;;;;;;;;5070105;28;45414;-69
2023/12/25 04:28:35;;;;;;;;;4.33;1.67;;;;;;;;5068614;28;45938;-69
2023/12/25 04:31:00;;;;;;;;;3.33;0.00;;;;;;;;5069328;28;45336;-70
2023/12/25 04:33:26;;;;;;;;;2.67;1.33;;;;;;;;5071722;28;46601;-69
2023/12/25 04:35:51;;;;;;;;;5.00;1.00;;;;;;;;5070592;28;45846;-72
2023/12/25 04:38:16;;;;;;;;;3.67;2.00;;;;;;;;5072472;28;45583;-69
2023/12/25 04:40:41;;;;;;;;;1.67;1.00;;;;;;;;5067109;28;46190;-69
2023/12/25 04:43:06;;;;;;;;;2.00;2.00;;;;;;;;5067894;28;46080;-68
2023/12/25 04:45:32;;;;;;;;;2.33;0.00;;;;;;;;5064794;28;45703;-70
2023/12/25 04:47:57;;;;;;;;;2.33;0.67;;;;;;;;5063973;28;45469;-70
2023/12/25 04:50:22;;;;;;;;;4.33;1.67;;;;;;;;5062836;28;45319;-72
2023/12/25 04:52:47;;;;;;;;;0.33;0.33;;;;;;;;5059500;28;47306;-69
2023/12/25 04:55:12;;;;;;;;;3.33;1.00;;;;;;;;5060197;28;45433;-69
2023/12/25 04:57:38;;;;;;;;;4.00;1.00;;;;;;;;5057670;28;45338;-71
2023/12/25 05:00:03;;;;;;;;;1.00;1.00;;;;;;;;5074389;28;45346;-69
2023/12/25 05:02:28;;;;;;;;;3.33;0.00;;;;;;;;5075192;28;46411;-73
2023/12/25 05:04:54;;;;;;;;;2.00;0.00;;;;;;;;5071796;28;45436;-69
2023/12/25 05:07:19;;;;;;;;;3.00;0.00;;;;;;;;5073535;28;45270;-70
2023/12/25 05:09:44;;;;;;;;;6.00;0.67;;;;;;;;5072450;28;45303;-72
2023/12/25 05:12:09;;;;;;;;;0.00;0.00;;;;;;;;5070915;28;45510;-71
2023/12/25 05:14:35;;;;;;;;;0.00;0.00;;;;;;;;5066086;28;45331;-69
2023/12/25 05:17:00;;;;;;;;;0.33;0.33;;;;;;;;5065926;28;45402;-69
2023/12/25 05:19:25;;;;;;;;;2.00;1.00;;;;;;;;5063721;28;45561;-71
2023/12/25 05:21:50;;;;;;;;;3.00;0.00;;;;;;;;5061347;28;46487;-69
2023/12/25 05:24:15;;;;;;;;;0.33;0.33;;;;;;;;5065797;28;45449;-70
2023/12/25 05:26:41;;;;;;;;;0.67;0.67;;;;;;;;5065722;28;45225;-71
2023/12/25 05:29:06;;;;;;;;;0.00;0.00;;;;;;;;5069072;28;45426;-73
2023/12/25 05:31:31;;;;;;;;;0.00;0.00;;;;;;;;5071985;28;46498;-69
2023/12/25 05:33:56;;;;;;;;;3.00;1.00;;;;;;;;5072771;28;45294;-69
2023/12/25 05:36:21;;;;;;;;;3.00;0.00;;;;;;;;5075980;28;45563;-69
2023/12/25 05:38:47;;;;;;;;;1.00;0.00;;;;;;;;5073155;28;45612;-69
2023/12/25 05:41:12;;;;;;;;;0.00;0.00;;;;;;;;5069893;28;45639;-71
2023/12/25 05:43:37;;;;;;;;;1.67;1.00;;;;;;;;5070251;28;45422;-69
2023/12/25 05:46:02;;;;;;;;;0.33;0.00;;;;;;;;5065685;28;45565;-68
2023/12/25 05:48:28;;;;;;;;;2.33;0.00;;;;;;;;5068098;28;45236;-70
2023/12/25 05:50:53;;;;;;;;;0.33;0.00;;;;;;;;5062875;28;45368;-69
2023/12/25 05:53:18;;;;;;;;;0.00;0.00;;;;;;;;5165326;22;45477;-70
2023/12/25 05:55:43;;;;;;;;;0.00;0.00;;;;;;;;5059709;28;45537;-72
2023/12/25 05:58:08;;;;;;;;;0.00;0.00;;;;;;;;5059272;28;45338;-72
2023/12/25 06:00:34;;;;;;;;;3.00;0.00;;;;;;;;5059196;28;45337;-70
2023/12/25 06:02:59;;;;;;;;;0.00;0.00;;;;;;;;5058867;28;45650;-70
2023/12/25 06:05:24;;;;;;;;;0.00;0.00;;;;;;;;5059003;28;45450;-69
2023/12/25 06:07:49;;;;;;;;;0.00;0.00;;;;;;;;5059090;28;45280;-69
2023/12/25 06:10:14;;;;;;;;;1.00;0.00;;;;;;;;5058822;28;46530;-69
2023/12/25 06:12:40;;;;;;;;;0.00;0.00;;;;;;;;5059080;28;45548;-70
2023/12/25 06:15:08;;;;;;;;;1.67;0.00;;;;;;;;5059061;28;45227;-69
2023/12/25 06:17:33;;;;;;;;;0.00;0.00;;;;;;;;5059109;28;45529;-70
2023/12/25 06:19:59;;;;;;;;;1.67;0.00;;;;;;;;5058954;28;45307;-72
2023/12/25 06:22:24;;;;;;;;;0.67;0.00;;;;;;;;5058832;28;45426;-69
2023/12/25 06:24:49;;;;;;;;;0.00;0.00;;;;;;;;5058846;28;45410;-70
2023/12/25 06:27:14;;;;;;;;;1.00;0.00;;;;;;;;5058726;28;45339;-72
2023/12/25 06:29:40;;;;;;;;;1.00;0.00;;;;;;;;5058479;28;45510;-72
2023/12/25 06:32:05;;;;;;;;;0.00;0.00;;;;;;;;5058953;28;45293;-73
2023/12/25 06:34:30;;;;;;;;;0.00;0.00;;;;;;;;5058621;28;45251;-69
2023/12/25 06:36:55;;;;;;;;;0.00;0.00;;;;;;;;5058824;28;45294;-70
2023/12/25 06:39:21;;;;;;;;;0.00;0.00;;;;;;;;5058511;28;45637;-69
2023/12/25 06:41:46;;;;;;;;;0.00;0.00;;;;;;;;5058552;28;45286;-69
2023/12/25 06:44:11;;;;;;;;;0.00;0.00;;;;;;;;5058303;28;45422;-69
2023/12/25 06:46:36;;;;;;;;;0.00;0.00;;;;;;;;5058772;28;45650;-70
2023/12/25 06:49:01;;;;;;;;;0.00;0.00;;;;;;;;5058327;28;46718;-71
2023/12/25 06:51:27;;;;;;;;;0.00;0.00;;;;;;;;5058380;28;45333;-70
2023/12/25 06:53:52;;;;;;;;;0.00;0.00;;;;;;;;5058474;28;45324;-69
2023/12/25 06:56:17;;;;;;;;;0.00;0.00;;;;;;;;5058537;28;45628;-68
2023/12/25 06:58:42;;;;;;;;;0.33;0.00;;;;;;;;5058267;28;47517;-70
2023/12/25 07:01:08;;;;;;;;;1.33;0.00;;;;;;;;5058399;28;45458;-69
2023/12/25 07:03:33;;;;;;;;;0.00;0.00;;;;;;;;5057699;28;45316;-68
2023/12/25 07:05:59;;;;;;;;;0.00;0.00;;;;;;;;5058587;28;45487;-69
2023/12/25 07:08:27;;;;;;;;;1.00;0.00;;;;;;;;5057610;28;46628;-72
2023/12/25 07:10:52;;;;;;;;;0.00;0.00;;;;;;;;5051240;28;45399;-72
2023/12/25 07:13:18;;;;;;;;;0.00;0.00;;;;;;;;5058165;28;45459;-68
2023/12/25 07:15:43;;;;;;;;;0.00;0.00;;;;;;;;5058249;28;45188;-69
2023/12/25 07:18:08;;;;;;;;;0.00;0.00;;;;;;;;5058117;28;46208;-72
2023/12/25 07:20:33;;;;;;;;;0.00;0.00;;;;;;;;5057926;28;45466;-69
2023/12/25 07:22:59;;;;;;;;;0.00;0.00;;;;;;;;5058208;28;45276;-72
2023/12/25 07:25:24;;;;;;;;;0.00;0.00;;;;;;;;5058072;28;45941;-68
2023/12/25 07:27:49;;;;;;;;;1.00;0.00;;;;;;;;5057598;28;45375;-71
2023/12/25 07:30:15;;;;;;;;;0.00;0.00;;;;;;;;5057969;28;45345;-69
2023/12/25 07:32:40;;;;;;;;;0.00;0.00;;;;;;;;5057689;28;45514;-70
2023/12/25 07:35:06;;;;;;;;;0.00;0.00;;;;;;;;5058002;28;45484;-69
2023/12/25 07:37:31;;;;;;;;;0.33;0.00;;;;;;;;5057194;28;46378;-70
2023/12/25 07:39:56;;;;;;;;;0.00;0.00;;;;;;;;5057914;28;45237;-68
2023/12/25 07:42:21;;;;;;;;;0.00;0.00;;;;;;;;5057863;28;45348;-71
2023/12/25 07:44:47;;;;;;;;;0.00;0.00;;;;;;;;5057825;28;45287;-68
2023/12/25 07:47:13;;;;;;;;;0.00;0.00;;;;;;;;5057474;28;45837;-68
2023/12/25 07:49:38;;;;;;;;;0.00;0.00;;;;;;;;5057349;28;45281;-69
2023/12/25 07:52:04;;;;;;;;;0.00;0.00;;;;;;;;5057662;28;45423;-73
2023/12/25 07:54:29;;;;;;;;;0.00;0.00;;;;;;;;5056712;28;45446;-68
2023/12/25 07:56:54;;;;;;;;;0.00;0.00;;;;;;;;5056935;28;46184;-71
2023/12/25 07:59:20;;;;;;;;;0.00;0.00;;;;;;;;5057228;28;45276;-69
2023/12/25 08:01:45;;;;;;;;;1.00;0.00;;;;;;;;5057149;28;45296;-69
2023/12/25 08:04:11;;;;;;;;;1.00;0.00;;;;;;;;5057297;28;45439;-70
2023/12/25 08:06:36;;;;;;;;;0.00;0.00;;;;;;;;5056931;28;47508;-69
2023/12/25 08:09:02;;;;;;;;;0.00;0.00;;;;;;;;5057390;28;45245;-68
2023/12/25 08:11:27;;;;;;;;;0.00;0.00;;;;;;;;5057281;28;45379;-68
2023/12/25 08:13:53;;;;;;;;;0.00;0.00;;;;;;;;5057438;28;47030;-68
2023/12/25 08:16:18;;;;;;;;;0.00;0.00;;;;;;;;5057212;28;46381;-71
2023/12/25 08:18:43;;;;;;;;;0.00;0.00;;;;;;;;5057019;28;45146;-69
2023/12/25 08:21:08;;;;;;;;;1.00;0.00;;;;;;;;5057151;28;45367;-68
2023/12/25 08:23:33;;;;;;;;;0.00;0.00;;;;;;;;5056996;28;45303;-69
2023/12/25 08:26:02;;;;;;;;;0.00;0.00;;;;;;;;5056870;28;45529;-68
2023/12/25 08:28:27;;;;;;;;;0.00;0.00;;;;;;;;5056823;28;45359;-69
2023/12/25 08:30:52;;;;;;;;;0.00;0.00;;;;;;;;5057031;28;45368;-68
2023/12/25 08:33:17;;;;;;;;;0.00;0.00;;;;;;;;5057222;28;45672;-71
2023/12/25 08:35:43;;;;;;;;;1.00;0.00;;;;;;;;5056872;28;46325;-68
2023/12/25 08:38:08;;;;;;;;;0.33;0.00;;;;;;;;5056850;28;45313;-70
2023/12/25 08:40:33;;;;;;;;;0.00;0.00;;;;;;;;5056947;28;45317;-69
2023/12/25 08:42:58;;;;;;;;;0.00;0.00;;;;;;;;5057089;28;45487;-70
2023/12/25 08:45:24;;;;;;;;;0.00;0.00;;;;;;;;5056777;28;45380;-68
2023/12/25 08:47:51;;;;;;;;;0.00;0.00;;;;;;;;5056765;28;45513;-73
2023/12/25 08:50:17;;;;;;;;;0.00;0.00;;;;;;;;5056835;28;45260;-68
2023/12/25 08:52:42;;;;;;;;;0.00;0.00;;;;;;;;5056838;28;45486;-71
2023/12/25 08:55:07;;;;;;;;;0.67;0.00;;;;;;;;5056683;28;45795;-68
2023/12/25 08:57:35;;;;;;;;;1.00;0.00;;;;;;;;5056654;28;45239;-68
2023/12/25 09:00:00;;;;;;;;;0.00;0.00;;;;;;;;5056576;28;45261;-71
2023/12/25 09:02:25;;;;;;;;;0.00;0.00;;;;;;;;5056632;28;45405;-73
2023/12/25 09:04:51;;;;;;;;;0.67;0.00;;;;;;;;5055804;28;46322;-68
2023/12/25 09:07:16;;;;;;;;;0.00;0.00;;;;;;;;5059122;28;45319;-68
2023/12/25 09:09:42;;;;;;;;;3.00;0.00;;;;;;;;5060083;28;45484;-72
2023/12/25 09:12:07;;;;;;;;;0.33;0.00;;;;;;;;5060167;28;45551;-68
2023/12/25 09:14:32;;;;;;;;;0.00;0.00;;;;;;;;5059953;28;46251;-68
2023/12/25 09:16:57;;;;;;;;;1.00;0.00;;;;;;;;5059974;28;45405;-69
2023/12/25 09:19:23;;;;;;;;;1.00;0.00;;;;;;;;5059960;28;45279;-72
2023/12/25 09:21:48;;;;;;;;;0.00;0.00;;;;;;;;5059909;28;45249;-71
2023/12/25 09:24:13;;;;;;;;;0.00;0.00;;;;;;;;5059577;28;46569;-68
2023/12/25 09:26:38;;;;;;;;;1.00;0.00;;;;;;;;5059940;28;45348;-69
2023/12/25 09:29:04;;;;;;;;;0.00;0.00;;;;;;;;5059458;28;45225;-69
2023/12/25 09:31:29;;;;;;;;;0.00;0.00;;;;;;;;5060138;28;45446;-68
2023/12/25 09:33:54;;;;;;;;;0.00;0.00;;;;;;;;5059532;28;46300;-69
2023/12/25 09:36:20;;;;;;;;;0.00;0.00;;;;;;;;5059614;28;45418;-68
2023/12/25 09:38:45;;;;;;;;;0.00;0.00;;;;;;;;5059537;28;45454;-69
2023/12/25 09:41:11;;;;;;;;;0.00;0.00;;;;;;;;5059825;28;45337;-68
2023/12/25 09:43:39;;;;;;;;;0.00;0.00;;;;;;;;5059444;28;45618;-69
2023/12/25 09:46:05;;;;;;;;;0.00;0.00;;;;;;;;5059583;28;45341;-70
2023/12/25 09:48:30;;;;;;;;;0.00;0.00;;;;;;;;5059391;28;45265;-71
2023/12/25 09:50:57;;;;;;;;;1.00;0.00;;;;;;;;5059790;28;45418;-72
2023/12/25 09:53:22;;;;;;;;;0.00;0.00;;;;;;;;5058952;28;45761;-70
2023/12/25 09:55:48;;;;;;;;;1.33;0.00;;;;;;;;5059335;28;45280;-71
2023/12/25 09:58:15;;;;;;;;;1.33;0.00;;;;;;;;5059341;28;45295;-73
2023/12/25 10:00:40;;;;;;;;;0.67;0.00;;;;;;;;5059668;28;45555;-70
2023/12/25 10:03:06;;;;;;;;;0.00;0.00;;;;;;;;5058821;28;47516;-73
2023/12/25 10:05:31;;;;;;;;;0.67;0.00;;;;;;;;5059128;28;45533;-69
2023/12/25 10:07:57;;;;;;;;;0.00;0.00;;;;;;;;5059191;28;45319;-69
2023/12/25 10:10:31;;;;;;;;;0.00;0.00;;;;;;;;5059116;28;45271;-69
2023/12/25 10:12:58;;;;;;;;;0.00;0.00;;;;;;;;5059167;28;47363;-70
2023/12/25 10:15:23;;;;;;;;;0.00;0.00;;;;;;;;5059095;28;45208;-69
2023/12/25 10:17:59;;;;;;;;;0.00;0.00;;;;;;;;5058238;28;45262;-70
2023/12/25 10:20:24;;;;;;;;;0.00;0.00;;;;;;;;5059171;28;45482;-71
2023/12/25 10:22:49;;;;;;;;;0.00;0.00;;;;;;;;5058660;28;45645;-74
2023/12/25 10:25:16;;;;;;;;;0.00;0.00;;;;;;;;5058798;28;45458;-69
2023/12/25 10:27:45;;;;;;;;;0.00;0.00;;;;;;;;5058853;28;45478;-72
2023/12/25 10:30:18;;;;;;;;;0.00;0.00;;;;;;;;5059319;28;45513;-71
2023/12/25 10:32:43;;;;;;;;;1.00;0.00;;;;;;;;5058895;28;45589;-72
2023/12/25 10:35:09;;;;;;;;;0.00;0.00;;;;;;;;5058653;28;45336;-69
2023/12/25 10:37:38;;;;;;;;;0.00;0.00;;;;;;;;5058704;28;45387;-68
2023/12/25 10:40:19;;;;;;;;;0.00;0.00;;;;;;;;5059048;28;45548;-71
2023/12/25 10:42:50;;;;;;;;;0.67;0.00;;;;;;;;5058545;28;45852;-71
2023/12/25 10:45:21;;;;;;;;;1.00;0.00;;;;;;;;5058592;28;45423;-72
2023/12/25 10:47:48;;;;;;;;;2.00;0.00;;;;;;;;5058450;28;45391;-69
2023/12/25 10:50:13;;;;;;;;;0.00;0.00;;;;;;;;5058622;28;45537;-73
2023/12/25 10:52:39;;;;;;;;;0.00;0.00;;;;;;;;5058351;28;46753;-73
2023/12/25 10:55:04;;;;;;;;;0.00;0.00;;;;;;;;5058295;28;45439;-70
2023/12/25 10:57:30;;;;;;;;;0.00;0.00;;;;;;;;5057841;28;45502;-74
2023/12/25 10:59:56;;;;;;;;;2.00;0.33;;;;;;;;5058313;28;45620;-71
2023/12/25 11:02:21;;;;;;;;;0.00;0.00;;;;;;;;5058409;28;45323;-69
2023/12/25 11:04:47;;;;;;;;;1.00;1.00;;;;;;;;5057774;28;45363;-69
2023/12/25 11:07:13;;;;;;;;;0.00;0.00;;;;;;;;5058390;28;45340;-70
2023/12/25 11:09:40;;;;;;;;;0.00;0.00;;;;;;;;5058356;28;45317;-69
2023/12/25 11:12:05;;;;;;;;;1.67;1.00;;;;;;;;5057994;28;47576;-69
2023/12/25 11:14:31;;;;;;;;;1.00;1.00;;;;;;;;5058005;28;45289;-74
2023/12/25 11:16:56;;;;;;;;;3.00;1.00;;;;;;;;5058188;28;45179;-70
2023/12/25 11:19:21;;;;;;;;;1.00;1.00;;;;;;;;5058144;28;45645;-69
2023/12/25 11:21:47;;;;;;;;;1.00;1.00;;;;;;;;5057862;28;45595;-70
2023/12/25 11:24:12;;;;;;;;;1.33;1.00;;;;;;;;5057928;28;45286;-69
2023/12/25 11:26:37;;;;;;;;;2.00;0.67;;;;;;;;5058394;28;45165;-71
2023/12/25 11:29:06;;;;;;;;;0.33;0.33;;;;;;;;5057708;28;45542;-69
2023/12/25 11:31:40;;;;;;;;;0.00;0.00;;;;;;;;5057922;28;47079;-70
2023/12/25 11:34:26;;;;;;;;;0.33;0.33;;;;;;;;5057702;28;45464;-70
2023/12/25 11:36:55;;;;;;;;;3.00;1.00;;;;;;;;5050682;28;45393;-73
2023/12/25 11:39:22;;;;;;;;;3.67;2.33;;;;;;;;5057708;28;45192;-70
2023/12/25 11:41:48;;;;;;;;;0.00;0.00;;;;;;;;5057650;28;45646;-74
2023/12/25 11:44:30;;;;;;;;;1.67;1.67;;;;;;;;5057712;28;45284;-69
2023/12/25 11:46:58;;;;;;;;;1.00;1.00;;;;;;;;5053603;28;45201;-74
2023/12/25 11:49:26;;;;;;;;;5.00;3.67;;;;;;;;5057709;28;45474;-69
2023/12/25 11:51:51;;;;;;;;;1.00;1.00;;;;;;;;5053776;28;46460;-72
2023/12/25 11:54:17;;;;;;;;;2.67;2.00;;;;;;;;5057692;28;45225;-71
2023/12/25 11:56:43;;;;;;;;;2.00;1.00;;;;;;;;5057487;28;45309;-69
2023/12/25 11:59:09;;;;;;;;;5.00;5.00;;;;;;;;5057606;28;45583;-72
2023/12/25 12:01:34;;;;;;;;;2.00;1.00;;;;;;;;5057102;28;46523;-72
2023/12/25 12:03:59;;;;;;;;;1.00;1.00;;;;;;;;5057139;28;45440;-70
2023/12/25 12:06:25;;;;;;;;;1.00;1.00;;;;;;;;5057340;28;45285;-71
2023/12/25 12:08:50;;;;;;;;;1.67;0.33;;;;;;;;5057396;28;45390;-69
2023/12/25 12:11:16;;;;;;;;;4.00;3.00;;;;;;;;5057006;28;45791;-69
2023/12/25 12:13:41;;;;;;;;;4.00;2.67;;;;;;;;5057003;28;45200;-70
2023/12/25 12:16:07;;;;;;;;;3.00;1.00;;;;;;;;5057273;28;45187;-69
2023/12/25 12:18:32;;;;;;;;;2.33;1.00;;;;;;;;5057162;28;45301;-72
2023/12/25 12:20:58;;;;;;;;;3.00;0.67;;;;;;;;5057129;28;46650;-69
2023/12/25 12:23:23;;;;;;;;;1.33;0.00;;;;;;;;5057077;28;45264;-70
2023/12/25 12:25:49;;;;;;;;;3.33;1.00;;;;;;;;5056683;28;45495;-69
2023/12/25 12:28:15;;;;;;;;;2.67;1.00;;;;;;;;5056937;28;45539;-71
2023/12/25 12:30:41;;;;;;;;;3.00;1.67;;;;;;;;5056594;28;46564;-72
2023/12/25 12:33:08;;;;;;;;;1.67;1.67;;;;;;;;5057040;28;45362;-70
2023/12/25 12:35:33;;;;;;;;;3.33;1.00;;;;;;;;5056912;28;45446;-69
2023/12/25 12:37:59;;;;;;;;;3.33;2.00;;;;;;;;5056819;28;45422;-69
2023/12/25 12:40:25;;;;;;;;;3.33;2.00;;;;;;;;5056157;28;46632;-70
2023/12/25 12:42:50;;;;;;;;;3.00;2.00;;;;;;;;5056506;28;45542;-69
2023/12/25 12:45:15;;;;;;;;;2.00;2.00;;;;;;;;5056905;28;45603;-73
2023/12/25 12:47:41;;;;;;;;;1.00;1.00;;;;;;;;5056902;28;45217;-73
2023/12/25 12:50:07;;;;;;;;;2.00;2.00;;;;;;;;5056261;28;45816;-73
2023/12/25 12:52:32;;;;;;;;;2.00;2.00;;;;;;;;5056808;28;45237;-72
2023/12/25 12:54:58;;;;;;;;;2.00;2.00;;;;;;;;5056392;28;45446;-69
2023/12/25 12:57:23;;;;;;;;;6.00;2.00;;;;;;;;5056944;28;45535;-73
2023/12/25 12:59:49;;;;;;;;;1.00;1.00;;;;;;;;5056009;28;47221;-70
2023/12/25 13:02:14;;;;;;;;;1.33;1.33;;;;;;;;5056492;28;45318;-70
2023/12/25 13:04:39;;;;;;;;;3.00;1.67;;;;;;;;5056375;28;45403;-69
2023/12/25 13:07:06;;;;;;;;;2.00;2.00;;;;;;;;5056607;28;45594;-69
2023/12/25 13:09:31;;;;;;;;;2.00;0.00;;;;;;;;5056104;28;46158;-69
2023/12/25 13:11:56;;;;;;;;;3.67;1.00;;;;;;;;5056239;28;45359;-69
2023/12/25 13:14:22;;;;;;;;;4.33;2.00;;;;;;;;5056386;28;45568;-71
2023/12/25 13:16:47;;;;;;;;;2.33;2.00;;;;;;;;5056570;28;45465;-69
2023/12/25 13:19:13;;;;;;;;;1.67;1.00;;;;;;;;5056292;28;45514;-69
2023/12/25 13:21:38;;;;;;;;;2.00;2.00;;;;;;;;5056315;28;45360;-73
2023/12/25 13:24:04;;;;;;;;;2.67;1.00;;;;;;;;5056268;28;46362;-70
2023/12/25 13:26:29;;;;;;;;;3.00;1.00;;;;;;;;5056568;28;45471;-70
2023/12/25 13:28:54;;;;;;;;;5.00;2.00;;;;;;;;5056108;28;45575;-73
2023/12/25 13:31:20;;;;;;;;;2.00;1.00;;;;;;;;5056128;28;45281;-70
2023/12/25 13:33:45;;;;;;;;;3.00;1.00;;;;;;;;5056233;28;45406;-70
2023/12/25 13:36:12;;;;;;;;;5.00;2.00;;;;;;;;5056392;28;45204;-69
2023/12/25 13:38:37;;;;;;;;;1.00;1.00;;;;;;;;5055945;28;46742;-72
2023/12/25 13:41:03;;;;;;;;;4.33;1.67;;;;;;;;5055951;28;45442;-70
2023/12/25 13:43:28;;;;;;;;;1.00;1.00;;;;;;;;5056209;28;45289;-72
2023/12/25 13:45:53;;;;;;;;;5.00;2.33;;;;;;;;5056244;28;45754;-71
2023/12/25 13:48:18;;;;;;;;;6.00;2.00;;;;;;;;5055884;28;46095;-71
2023/12/25 13:50:44;;;;;;;;;6.00;2.67;;;;;;;;5055919;28;45564;-69
2023/12/25 13:53:09;;;;;;;;;0.67;0.67;;;;;;;;5056621;28;45481;-70
2023/12/25 13:55:34;;;;;;;;;4.67;1.00;;;;;;;;5059704;28;45276;-71
2023/12/25 13:58:00;;;;;;;;;2.00;2.00;;;;;;;;5058767;28;47667;-73
2023/12/25 14:00:25;;;;;;;;;2.00;2.00;;;;;;;;5059505;28;45296;-73
2023/12/25 14:02:51;;;;;;;;;3.33;3.00;;;;;;;;5059367;28;45311;-69
2023/12/25 14:05:16;;;;;;;;;4.33;3.00;;;;;;;;5059125;28;45363;-72
2023/12/25 14:07:41;;;;;;;;;3.00;2.00;;;;;;;;5058905;28;45744;-73
2023/12/25 14:10:07;;;;;;;;;4.00;1.00;;;;;;;;5058620;28;45431;-70
2023/12/25 14:12:32;;;;;;;;;4.33;3.67;;;;;;;;5059088;28;45359;-73
2023/12/25 14:14:58;;;;;;;;;3.00;1.00;;;;;;;;5059108;28;45392;-70
2023/12/25 14:17:23;;;;;;;;;2.00;2.00;;;;;;;;5058998;28;46581;-69
2023/12/25 14:19:48;;;;;;;;;2.00;2.00;;;;;;;;5058928;28;45358;-72
2023/12/25 14:22:14;;;;;;;;;3.00;3.00;;;;;;;;5058932;28;45395;-71
2023/12/25 14:24:39;;;;;;;;;3.00;3.00;;;;;;;;5059208;28;45526;-69
2023/12/25 14:27:08;;;;;;;;;2.67;2.67;;;;;;;;5058712;28;45988;-70
2023/12/25 14:29:34;;;;;;;;;2.33;1.33;;;;;;;;5058748;28;45390;-74
2023/12/25 14:31:59;;;;;;;;;0.00;0.00;;;;;;;;5059094;28;45558;-73
2023/12/25 14:34:24;;;;;;;;;6.67;3.67;;;;;;;;5058633;28;45532;-69